Time;durP1;ratioP1;P1;durP2;ratioP2;P2;SDS_P1;SDS_P2;PMS_P1;PMS_P2;Temp;Humidity;BMP_temperature;BMP_pressure;BME280_temperature;BME280_humidity;BME280_pressure;Samples;Min_cycle;Max_cycle;Signal;HPM_P1;HPM_P2
2022/04/01 00:00:23;;;;;;;;;3.00;3.00;18.30;99.90;;;;;;5070622;28;9359;-46
2022/04/01 00:02:53;;;;;;;;;3.00;3.00;18.30;99.90;;;;;;5066415;28;10080;-45
2022/04/01 00:05:23;;;;;;;;;4.33;2.67;18.20;99.90;;;;;;5081005;28;9441;-45
2022/04/01 00:07:55;;;;;;;;;4.00;4.00;18.20;99.90;;;;;;5070923;28;9460;-48
2022/04/01 00:10:27;;;;;;;;;3.75;2.00;18.10;99.90;;;;;;5081861;28;9694;-43
2022/04/01 00:12:58;;;;;;;;;2.75;2.75;18.10;99.90;;;;;;5077122;28;10322;-46
2022/04/01 00:15:29;;;;;;;;;6.25;4.50;18.00;99.90;;;;;;5078518;28;9882;-47
2022/04/01 00:18:03;;;;;;;;;3.50;1.75;17.90;99.90;;;;;;5077988;28;10040;-49
2022/04/01 00:20:33;;;;;;;;;4.25;4.25;17.80;99.90;;;;;;5071421;28;9710;-45
2022/04/01 00:23:04;;;;;;;;;6.25;6.25;17.70;99.90;;;;;;5080894;27;10577;-42
2022/04/01 00:25:35;;;;;;;;;5.75;5.75;17.70;99.90;;;;;;5065402;28;10790;-44
2022/04/01 00:28:06;;;;;;;;;7.50;7.50;17.80;99.90;;;;;;5074309;28;11188;-45
2022/04/01 00:30:39;;;;;;;;;8.75;8.75;17.90;99.90;;;;;;5065881;28;11164;-49
2022/04/01 00:33:16;;;;;;;;;11.75;9.50;17.80;99.90;;;;;;5075297;28;11412;-49
2022/04/01 00:35:48;;;;;;;;;9.50;9.50;17.80;99.90;;;;;;5090424;27;11468;-47
2022/04/01 00:38:18;;;;;;;;;9.50;8.00;17.80;99.90;;;;;;5072050;28;11768;-47
2022/04/01 00:40:50;;;;;;;;;7.50;7.50;17.80;99.90;;;;;;5069710;28;11048;-52
2022/04/01 00:43:29;;;;;;;;;6.25;6.25;17.80;99.90;;;;;;5071762;28;10901;-51
2022/04/01 00:46:00;;;;;;;;;5.25;5.25;17.80;99.90;;;;;;5066748;28;10803;-49
2022/04/01 00:48:31;;;;;;;;;6.00;6.00;17.70;99.90;;;;;;5070864;28;10317;-47
2022/04/01 00:51:02;;;;;;;;;8.75;8.25;17.60;99.90;;;;;;5072137;28;11163;-46
2022/04/01 00:53:33;;;;;;;;;6.75;6.75;17.70;99.90;;;;;;5076759;28;10790;-46
2022/04/01 00:56:03;;;;;;;;;6.00;6.00;17.70;99.90;;;;;;5074873;28;10649;-47
2022/04/01 00:58:35;;;;;;;;;4.50;4.50;17.60;99.90;;;;;;5077630;28;10374;-51
2022/04/01 01:01:07;;;;;;;;;4.00;4.00;17.50;99.90;;;;;;5072392;28;9971;-47
2022/04/01 01:03:37;;;;;;;;;1.75;1.75;17.50;99.90;;;;;;5075366;28;9936;-46
2022/04/01 01:06:08;;;;;;;;;3.75;2.50;17.50;99.90;;;;;;5071368;28;10014;-47
2022/04/01 01:08:40;;;;;;;;;3.00;3.00;17.40;99.90;;;;;;5072791;28;11062;-49
2022/04/01 01:11:11;;;;;;;;;5.50;5.50;17.40;99.90;;;;;;5074056;28;10159;-46
2022/04/01 01:13:41;;;;;;;;;4.25;3.00;17.40;99.90;;;;;;5077329;28;11065;-46
2022/04/01 01:16:12;;;;;;;;;2.50;2.50;17.40;99.90;;;;;;5076540;28;10311;-49
2022/04/01 01:18:43;;;;;;;;;4.00;4.00;17.30;99.90;;;;;;5072167;28;11913;-48
2022/04/01 01:21:14;;;;;;;;;3.25;2.25;17.20;99.90;;;;;;5070733;28;10838;-50
2022/04/01 01:23:46;;;;;;;;;3.00;3.00;17.20;99.90;;;;;;5070348;28;11410;-47
2022/04/01 01:26:16;;;;;;;;;8.25;8.25;17.20;99.90;;;;;;5067000;28;11533;-49
2022/04/01 01:28:47;;;;;;;;;26.25;25.75;17.00;99.90;;;;;;5071577;28;11480;-50
2022/04/01 01:31:16;;;;;;;;;35.50;32.00;17.00;99.90;;;;;;5076833;28;11559;-48
2022/04/01 01:33:48;;;;;;;;;38.67;35.00;17.10;99.90;;;;;;5071926;28;11538;-49
2022/04/01 01:36:18;;;;;;;;;53.33;45.00;17.10;99.90;;;;;;5071612;28;8974;-49
2022/04/01 01:38:50;;;;;;;;;77.50;74.75;16.90;99.90;;;;;;5083405;28;8854;-48
2022/04/01 01:41:22;;;;;;;;;96.25;95.00;16.80;99.90;;;;;;5081644;28;8865;-48
2022/04/01 01:43:56;;;;;;;;;88.00;87.00;16.70;99.90;;;;;;5072651;28;8855;-47
2022/04/01 01:46:27;;;;;;;;;78.50;74.25;16.80;99.90;;;;;;5075957;28;9573;-47
2022/04/01 01:48:58;;;;;;;;;59.33;49.33;16.70;99.90;;;;;;5070014;28;8899;-47
2022/04/01 01:57:08;;;;;;;;;8.75;7.50;16.60;99.90;;;;;;5079991;28;11496;-47
2022/04/01 01:59:40;;;;;;;;;3.25;2.50;16.60;99.90;;;;;;5073355;28;11686;-54
2022/04/01 02:02:12;;;;;;;;;5.75;5.25;16.60;99.90;;;;;;5072042;28;11497;-47
2022/04/01 02:04:43;;;;;;;;;5.75;5.75;16.40;99.90;;;;;;5074686;28;11658;-47
2022/04/01 02:07:14;;;;;;;;;8.75;5.75;16.40;99.90;;;;;;5078630;28;10469;-46
2022/04/01 02:09:46;;;;;;;;;3.00;3.00;16.30;99.90;;;;;;5071161;28;10615;-50
2022/04/01 02:12:17;;;;;;;;;6.75;5.50;16.30;99.90;;;;;;5066042;28;10522;-48
2022/04/01 02:14:48;;;;;;;;;5.50;5.50;16.20;99.90;;;;;;5078555;28;10566;-49
2022/04/01 02:17:20;;;;;;;;;5.50;4.00;16.20;99.90;;;;;;5079700;28;10604;-45
2022/04/01 02:19:50;;;;;;;;;6.75;5.00;16.10;99.90;;;;;;5082215;28;10529;-48
2022/04/01 02:22:20;;;;;;;;;6.00;4.75;16.10;99.90;;;;;;5073312;28;10644;-48
2022/04/01 02:24:53;;;;;;;;;5.25;4.75;16.00;99.90;;;;;;5078028;28;10695;-46
2022/04/01 02:27:25;;;;;;;;;5.00;5.00;16.00;99.90;;;;;;5065896;28;10759;-50
2022/04/01 02:29:56;;;;;;;;;5.00;3.25;16.00;99.90;;;;;;5067844;28;10950;-49
2022/04/01 02:32:47;;;;;;;;;3.50;3.50;16.00;99.90;;;;;;5078266;28;10719;-50
2022/04/01 02:35:33;;;;;;;;;5.50;5.50;15.90;99.90;;;;;;5079426;28;11276;-50
2022/04/01 02:38:04;;;;;;;;;5.50;3.50;15.90;99.90;;;;;;5080996;28;10793;-46
2022/04/01 02:40:36;;;;;;;;;4.00;4.00;15.90;99.90;;;;;;5073672;28;10804;-49
2022/04/01 02:43:07;;;;;;;;;7.25;6.00;15.90;99.90;;;;;;5076251;28;10690;-49
2022/04/01 02:45:40;;;;;;;;;5.00;5.00;15.90;99.90;;;;;;5081490;28;10714;-48
2022/04/01 02:48:10;;;;;;;;;7.00;5.00;15.80;99.90;;;;;;5077705;28;10946;-49
2022/04/01 02:51:04;;;;;;;;;3.00;3.00;15.70;99.90;;;;;;5074599;28;10949;-49
2022/04/01 02:53:35;;;;;;;;;8.75;5.75;15.70;99.90;;;;;;5060859;28;10681;-48
2022/04/01 02:56:08;;;;;;;;;6.50;6.50;15.70;99.90;;;;;;5064781;28;10809;-50
2022/04/01 02:58:39;;;;;;;;;5.00;5.00;15.70;99.90;;;;;;5067717;28;11000;-48
2022/04/01 03:01:10;;;;;;;;;3.00;3.00;15.70;99.90;;;;;;5071134;28;10814;-49
2022/04/01 03:03:41;;;;;;;;;9.50;9.00;15.70;99.90;;;;;;5072514;28;11630;-49
2022/04/01 03:06:16;;;;;;;;;7.25;7.25;15.60;99.90;;;;;;5067362;28;11042;-50
2022/04/01 03:08:49;;;;;;;;;4.50;4.00;15.60;99.90;;;;;;5068608;28;11057;-45
2022/04/01 03:11:21;;;;;;;;;4.25;4.25;15.60;99.90;;;;;;5076321;28;11376;-45
2022/04/01 03:13:52;;;;;;;;;5.00;5.00;15.60;99.90;;;;;;5071137;28;11036;-47
2022/04/01 03:16:24;;;;;;;;;7.50;7.50;15.40;99.90;;;;;;5080269;28;10909;-49
2022/04/01 03:18:57;;;;;;;;;7.50;7.50;15.40;99.90;;;;;;5056932;28;10746;-45
2022/04/01 03:21:30;;;;;;;;;5.50;5.50;15.40;99.90;;;;;;5079723;28;11815;-45
2022/04/01 03:24:01;;;;;;;;;7.25;4.50;15.40;99.90;;;;;;5070420;28;10957;-45
2022/04/01 03:26:34;;;;;;;;;5.00;5.00;15.30;99.90;;;;;;5073212;28;10968;-45
2022/04/01 03:29:07;;;;;;;;;7.75;6.50;15.30;99.90;;;;;;5067276;28;11227;-46
2022/04/01 03:31:40;;;;;;;;;5.25;5.00;15.20;99.90;;;;;;5077447;28;11062;-46
2022/04/01 03:34:11;;;;;;;;;6.50;4.50;15.20;99.90;;;;;;5061287;28;11152;-49
2022/04/01 03:36:42;;;;;;;;;9.50;7.25;15.20;99.90;;;;;;5076584;28;10858;-48
2022/04/01 03:39:13;;;;;;;;;5.50;5.50;15.20;99.90;;;;;;5072432;28;11871;-48
2022/04/01 03:41:57;;;;;;;;;5.25;5.25;15.20;99.90;;;;;;5079120;28;11648;-48
2022/04/01 03:44:30;;;;;;;;;5.25;5.25;15.30;99.90;;;;;;5072839;28;11076;-48
2022/04/01 03:47:44;;;;;;;;;6.00;6.00;15.30;99.90;;;;;;5057501;28;11094;-45
2022/04/01 03:50:17;;;;;;;;;5.50;5.25;15.20;99.90;;;;;;5076936;28;12096;-49
2022/04/01 03:52:48;;;;;;;;;6.75;5.75;15.20;99.90;;;;;;5077269;28;11058;-46
2022/04/01 03:55:26;;;;;;;;;6.00;6.00;15.10;99.90;;;;;;5075890;28;11837;-50
2022/04/01 03:58:15;;;;;;;;;6.25;5.75;15.20;99.90;;;;;;5086993;28;11020;-46
2022/04/01 04:01:12;;;;;;;;;5.25;4.00;15.20;99.90;;;;;;5065152;28;10989;-46
2022/04/01 04:03:49;;;;;;;;;6.75;6.75;15.10;99.90;;;;;;5073937;28;10911;-47
2022/04/01 04:06:21;;;;;;;;;7.25;5.75;15.10;99.90;;;;;;5070734;28;11040;-46
2022/04/01 04:09:03;;;;;;;;;3.50;3.25;15.20;99.90;;;;;;5071713;28;10817;-52
2022/04/01 04:11:34;;;;;;;;;5.50;5.50;15.10;99.90;;;;;;5077018;28;10989;-50
2022/04/01 04:14:33;;;;;;;;;4.75;3.75;15.10;99.90;;;;;;5067868;28;10985;-49
2022/04/01 04:17:11;;;;;;;;;5.75;5.25;15.10;99.90;;;;;;5055435;28;11147;-49
2022/04/01 04:20:02;;;;;;;;;5.75;4.25;15.10;99.90;;;;;;5072881;28;11292;-49
2022/04/01 04:23:06;;;;;;;;;6.00;5.00;15.10;99.90;;;;;;5073054;28;11130;-46
2022/04/01 04:25:38;;;;;;;;;9.50;8.25;15.10;99.90;;;;;;5064391;28;11615;-49
2022/04/01 04:28:16;;;;;;;;;4.75;4.75;15.10;99.90;;;;;;5080040;28;11161;-50
2022/04/01 04:30:53;;;;;;;;;9.00;4.25;15.00;99.90;;;;;;5073457;28;11130;-45
2022/04/01 04:33:33;;;;;;;;;6.75;6.50;15.00;99.90;;;;;;5063838;28;11067;-49
2022/04/01 04:36:05;;;;;;;;;7.25;4.75;15.00;99.90;;;;;;5080548;28;10728;-49
2022/04/01 04:38:55;;;;;;;;;7.00;7.00;15.00;99.90;;;;;;5068354;28;10989;-49
2022/04/01 04:41:25;;;;;;;;;6.75;5.25;15.10;99.90;;;;;;5074692;28;11856;-51
2022/04/01 04:44:11;;;;;;;;;5.25;5.25;15.00;99.90;;;;;;5064377;28;12340;-49
2022/04/01 04:46:44;;;;;;;;;10.75;6.50;15.00;99.90;;;;;;5069395;28;10949;-50
2022/04/01 04:49:19;;;;;;;;;6.00;5.00;15.00;99.90;;;;;;5074673;28;11470;-49
2022/04/01 04:51:53;;;;;;;;;5.75;5.75;15.00;99.90;;;;;;5072866;28;11193;-50
2022/04/01 04:54:26;;;;;;;;;3.00;3.00;15.00;99.90;;;;;;5071436;28;12064;-49
2022/04/01 04:57:21;;;;;;;;;5.25;5.25;15.00;99.90;;;;;;5069078;28;11048;-50
2022/04/01 04:59:54;;;;;;;;;6.00;6.00;15.00;99.90;;;;;;5067610;28;11246;-46
2022/04/01 05:03:02;;;;;;;;;8.25;6.25;14.90;99.90;;;;;;5074639;28;11121;-46
2022/04/01 05:05:56;;;;;;;;;4.75;4.25;14.90;99.90;;;;;;5065820;28;11109;-46
2022/04/01 05:08:51;;;;;;;;;6.50;5.25;14.90;99.90;;;;;;5071527;28;11841;-45
2022/04/01 05:11:41;;;;;;;;;7.25;4.50;14.90;99.90;;;;;;5073290;28;11449;-50
2022/04/01 05:14:57;;;;;;;;;6.25;6.25;14.90;99.90;;;;;;5072661;28;11137;-48
2022/04/01 05:17:54;;;;;;;;;5.75;5.75;14.80;99.90;;;;;;5074288;28;11054;-48
2022/04/01 05:20:36;;;;;;;;;6.25;4.00;14.80;99.90;;;;;;5053343;28;11408;-47
2022/04/01 05:23:21;;;;;;;;;6.50;6.25;14.80;99.90;;;;;;5070998;28;12735;-49
2022/04/01 05:26:12;;;;;;;;;6.75;5.00;14.80;99.90;;;;;;5067771;28;11601;-52
2022/04/01 05:29:02;;;;;;;;;7.50;5.75;14.80;99.90;;;;;;5070678;28;11412;-49
2022/04/01 05:31:42;;;;;;;;;7.00;7.00;14.80;99.90;;;;;;5066088;28;11161;-49
2022/04/01 05:34:44;;;;;;;;;5.00;5.00;14.70;99.90;;;;;;5055883;28;11462;-51
2022/04/01 05:37:17;;;;;;;;;6.00;5.00;14.70;99.90;;;;;;5050933;28;11459;-49
2022/04/01 05:39:48;;;;;;;;;6.00;6.00;14.70;99.90;;;;;;5066457;28;11470;-51
2022/04/01 05:42:25;;;;;;;;;12.00;7.25;14.60;99.90;;;;;;5064241;28;11464;-51
2022/04/01 05:45:14;;;;;;;;;6.25;6.25;14.60;99.90;;;;;;5066288;28;11461;-50
2022/04/01 05:47:45;;;;;;;;;6.25;5.00;14.60;99.90;;;;;;5048017;28;11131;-51
2022/04/01 05:50:19;;;;;;;;;5.00;3.50;14.60;99.90;;;;;;5065527;28;11478;-49
2022/04/01 05:52:52;;;;;;;;;4.00;4.00;14.60;99.90;;;;;;5068226;28;11436;-52
2022/04/01 05:55:26;;;;;;;;;5.50;5.25;14.60;99.90;;;;;;5063482;28;11449;-50
2022/04/01 05:57:57;;;;;;;;;8.75;8.25;14.60;99.90;;;;;;5064740;28;12192;-51
2022/04/01 06:00:33;;;;;;;;;7.50;6.25;14.50;99.90;;;;;;5069131;27;11458;-52
2022/04/01 06:03:46;;;;;;;;;5.75;5.75;14.50;99.90;;;;;;5067844;28;11487;-51
2022/04/01 06:06:40;;;;;;;;;8.75;7.25;14.40;99.90;;;;;;5035536;28;11451;-51
2022/04/01 06:09:31;;;;;;;;;5.00;5.00;14.40;99.90;;;;;;5064598;28;11447;-48
2022/04/01 06:12:17;;;;;;;;;7.50;7.50;14.40;99.90;;;;;;5080062;28;11396;-50
2022/04/01 06:15:19;;;;;;;;;5.50;5.50;14.40;99.90;;;;;;5078925;28;11536;-50
2022/04/01 06:18:15;;;;;;;;;5.75;5.75;14.30;99.90;;;;;;5079751;28;11449;-49
2022/04/01 06:20:48;;;;;;;;;5.75;4.00;14.30;99.90;;;;;;5073970;28;11435;-48
2022/04/01 06:23:43;;;;;;;;;6.50;5.75;14.30;99.90;;;;;;5071225;28;11587;-49
2022/04/01 06:26:14;;;;;;;;;5.00;5.00;14.30;99.90;;;;;;5069452;28;11891;-50
2022/04/01 06:29:19;;;;;;;;;9.25;8.50;14.30;99.90;;;;;;5064762;28;11484;-49
2022/04/01 06:32:05;;;;;;;;;6.00;4.00;14.20;99.90;;;;;;5055382;28;11458;-49
2022/04/01 06:34:51;;;;;;;;;5.75;5.25;14.20;99.90;;;;;;5072684;28;12038;-49
2022/04/01 06:38:08;;;;;;;;;6.00;6.00;14.20;99.90;;;;;;5063369;28;11466;-49
2022/04/01 06:41:06;;;;;;;;;4.00;4.00;14.20;99.90;;;;;;5068926;28;11440;-48
2022/04/01 06:43:49;;;;;;;;;4.00;4.00;14.20;99.90;;;;;;5064594;28;13071;-49
2022/04/01 06:46:39;;;;;;;;;6.50;6.00;14.10;99.90;;;;;;5057067;28;11559;-50
2022/04/01 06:49:15;;;;;;;;;6.75;5.50;14.10;99.90;;;;;;5071554;28;11456;-51
2022/04/01 06:52:04;;;;;;;;;7.75;6.75;14.10;99.90;;;;;;5077977;28;11385;-47
2022/04/01 06:54:54;;;;;;;;;5.50;5.00;14.10;99.90;;;;;;5074323;28;11466;-48
2022/04/01 06:57:43;;;;;;;;;6.25;5.75;14.10;99.90;;;;;;5073081;28;11418;-49
2022/04/01 07:00:44;;;;;;;;;6.75;6.00;14.00;99.90;;;;;;5072241;28;11475;-48
2022/04/01 07:03:15;;;;;;;;;5.25;5.00;14.00;99.90;;;;;;5069801;28;11884;-50
2022/04/01 07:05:47;;;;;;;;;7.00;5.75;14.00;99.90;;;;;;5080361;28;11455;-48
2022/04/01 07:08:19;;;;;;;;;6.75;6.75;14.00;99.90;;;;;;5078286;28;12194;-46
2022/04/01 07:10:49;;;;;;;;;6.25;6.25;14.00;99.90;;;;;;5084469;28;11800;-48
2022/04/01 07:13:20;;;;;;;;;7.75;7.00;13.90;99.90;;;;;;5066461;28;11450;-47
2022/04/01 07:15:51;;;;;;;;;9.50;8.00;13.90;99.90;;;;;;5020077;28;11629;-49
2022/04/01 07:18:22;;;;;;;;;7.25;5.25;13.90;99.90;;;;;;5077114;28;11442;-50
2022/04/01 07:20:53;;;;;;;;;6.00;6.00;13.80;99.90;;;;;;5085824;28;11441;-51
2022/04/01 07:23:24;;;;;;;;;6.50;6.50;13.90;99.90;;;;;;5078175;28;12253;-48
2022/04/01 07:25:55;;;;;;;;;6.00;6.00;13.90;99.90;;;;;;5076049;27;11571;-50
2022/04/01 07:28:25;;;;;;;;;6.00;4.75;13.80;99.90;;;;;;5072363;28;11504;-48
2022/04/01 07:30:55;;;;;;;;;5.50;5.50;13.80;99.90;;;;;;5071796;28;11455;-49
2022/04/01 07:33:44;;;;;;;;;9.75;9.25;13.80;99.90;;;;;;5078793;28;11424;-52
2022/04/01 07:36:15;;;;;;;;;6.75;6.75;13.80;99.90;;;;;;5073516;28;11457;-50
2022/04/01 07:38:46;;;;;;;;;3.00;3.00;13.70;99.90;;;;;;5081112;28;11456;-47
2022/04/01 07:41:16;;;;;;;;;5.75;3.75;13.70;99.90;;;;;;5074980;28;11460;-52
2022/04/01 07:43:46;;;;;;;;;9.75;6.75;13.70;99.90;;;;;;5075541;28;11451;-49
2022/04/01 07:46:17;;;;;;;;;9.00;6.25;13.70;99.90;;;;;;5074571;27;12614;-48
2022/04/01 07:48:50;;;;;;;;;4.25;4.00;13.70;99.90;;;;;;5077410;28;12170;-47
2022/04/01 07:51:20;;;;;;;;;8.25;5.25;13.60;99.90;;;;;;5071138;28;11613;-51
2022/04/01 07:53:52;;;;;;;;;5.75;5.00;13.60;99.90;;;;;;5075591;28;11635;-52
2022/04/01 07:56:30;;;;;;;;;6.50;4.50;13.60;99.90;;;;;;5075141;27;11472;-49
2022/04/01 07:59:00;;;;;;;;;5.25;5.25;13.60;99.90;;;;;;5071591;28;11499;-52
2022/04/01 08:01:31;;;;;;;;;7.50;6.75;13.60;99.90;;;;;;5075334;28;11489;-47
2022/04/01 08:04:02;;;;;;;;;6.00;6.00;13.60;99.90;;;;;;5076149;28;11581;-53
2022/04/01 08:06:33;;;;;;;;;6.75;6.75;13.50;99.90;;;;;;5077270;28;11435;-51
2022/04/01 08:09:04;;;;;;;;;6.00;6.00;13.50;99.90;;;;;;5071552;28;11508;-47
2022/04/01 08:11:34;;;;;;;;;4.25;4.25;13.50;99.90;;;;;;5086945;28;11417;-52
2022/04/01 08:14:05;;;;;;;;;3.25;3.25;13.50;99.90;;;;;;5081436;28;11562;-51
2022/04/01 08:16:37;;;;;;;;;4.00;4.00;13.50;99.90;;;;;;5073982;28;11470;-51
2022/04/01 08:19:08;;;;;;;;;6.00;6.00;13.40;99.90;;;;;;5084665;28;11521;-51
2022/04/01 08:21:39;;;;;;;;;5.75;4.75;13.40;99.90;;;;;;5071819;28;11522;-52
2022/04/01 08:24:09;;;;;;;;;4.00;2.75;13.30;99.90;;;;;;5076337;28;11454;-51
2022/04/01 08:26:39;;;;;;;;;6.25;3.75;13.30;99.90;;;;;;5075266;28;11453;-52
2022/04/01 08:29:10;;;;;;;;;5.50;5.50;13.30;99.90;;;;;;5073413;28;11484;-51
2022/04/01 08:31:41;;;;;;;;;5.00;5.00;13.30;99.90;;;;;;5067258;28;11498;-49
2022/04/01 08:34:11;;;;;;;;;6.75;6.75;13.20;99.90;;;;;;5081900;28;12177;-52
2022/04/01 08:36:41;;;;;;;;;6.00;5.00;13.20;99.90;;;;;;5077683;28;11467;-49
2022/04/01 08:39:11;;;;;;;;;5.00;5.00;13.20;99.90;;;;;;5071469;28;11498;-48
2022/04/01 08:41:41;;;;;;;;;4.00;4.00;13.20;99.90;;;;;;5065658;28;11463;-51
2022/04/01 08:44:12;;;;;;;;;4.00;4.00;13.20;99.90;;;;;;5072129;28;11488;-52
2022/04/01 08:46:42;;;;;;;;;5.75;5.25;13.20;99.90;;;;;;5080257;28;11445;-52
2022/04/01 08:49:12;;;;;;;;;4.75;4.75;13.10;99.90;;;;;;5075353;28;11516;-48
2022/04/01 08:51:43;;;;;;;;;5.50;4.50;13.10;99.90;;;;;;5083689;28;11486;-51
2022/04/01 08:54:20;;;;;;;;;4.00;4.00;13.10;99.90;;;;;;5073019;28;11485;-49
2022/04/01 08:56:50;;;;;;;;;8.50;7.00;13.10;99.90;;;;;;5071776;28;11436;-52
2022/04/01 08:59:27;;;;;;;;;4.75;4.75;13.00;99.90;;;;;;5074064;28;11512;-49
2022/04/01 09:02:05;;;;;;;;;5.25;5.25;13.00;99.90;;;;;;5090509;28;11426;-50
2022/04/01 09:04:37;;;;;;;;;6.50;5.00;12.90;99.90;;;;;;5070847;28;11424;-49
2022/04/01 09:07:15;;;;;;;;;4.75;4.00;12.90;99.90;;;;;;5083703;28;11428;-51
2022/04/01 09:09:45;;;;;;;;;5.50;4.75;12.90;99.90;;;;;;5074652;28;11522;-47
2022/04/01 09:12:17;;;;;;;;;3.75;3.75;12.90;99.90;;;;;;5072689;28;11456;-48
2022/04/01 09:14:55;;;;;;;;;4.50;4.50;12.90;99.90;;;;;;5076835;28;11483;-50
2022/04/01 09:17:42;;;;;;;;;4.50;3.50;12.90;99.90;;;;;;5073811;28;11533;-50
2022/04/01 09:20:14;;;;;;;;;4.75;2.75;12.90;99.90;;;;;;5077687;28;11485;-50
2022/04/01 09:22:45;;;;;;;;;5.00;5.00;12.90;99.90;;;;;;5082610;28;11546;-51
2022/04/01 09:25:19;;;;;;;;;4.25;4.25;12.80;99.90;;;;;;5078042;28;12799;-47
2022/04/01 09:27:53;;;;;;;;;5.00;5.00;12.80;99.90;;;;;;5072497;28;11436;-51
2022/04/01 09:30:30;;;;;;;;;4.00;4.00;12.80;99.90;;;;;;5072209;28;11515;-50
2022/04/01 09:33:04;;;;;;;;;4.50;4.00;12.80;99.90;;;;;;5083158;28;11501;-47
2022/04/01 09:35:36;;;;;;;;;4.00;4.00;12.70;99.90;;;;;;5067532;28;11663;-50
2022/04/01 09:38:07;;;;;;;;;4.25;4.25;12.70;99.90;;;;;;5076586;28;11533;-52
2022/04/01 09:40:39;;;;;;;;;4.00;4.00;12.70;99.90;;;;;;5075955;28;11519;-48
2022/04/01 09:43:09;;;;;;;;;5.75;4.25;12.70;99.90;;;;;;5075109;28;11502;-52
2022/04/01 09:45:39;;;;;;;;;5.00;4.00;12.70;99.90;;;;;;5069945;28;11518;-48
2022/04/01 09:48:13;;;;;;;;;5.50;4.25;12.60;99.90;;;;;;5071988;28;11490;-53
2022/04/01 09:50:54;;;;;;;;;3.50;3.00;12.60;99.90;;;;;;5074434;28;12241;-50
2022/04/01 09:53:25;;;;;;;;;4.50;4.25;12.60;99.90;;;;;;5078085;28;11536;-48
2022/04/01 09:55:59;;;;;;;;;1.50;1.50;12.60;99.90;;;;;;5073961;28;11491;-51
2022/04/01 09:58:30;;;;;;;;;6.00;4.50;12.60;99.90;;;;;;5082403;28;12055;-51
2022/04/01 10:01:04;;;;;;;;;6.50;6.00;12.60;99.90;;;;;;5065328;28;11538;-49
2022/04/01 10:03:39;;;;;;;;;12.75;12.75;12.50;99.90;;;;;;5064693;28;11552;-50
2022/04/01 10:06:10;;;;;;;;;9.50;7.50;12.60;99.90;;;;;;5070446;28;11547;-51
2022/04/01 10:08:43;;;;;;;;;5.25;5.25;12.70;99.90;;;;;;5076400;28;11537;-48
2022/04/01 10:11:15;;;;;;;;;5.25;4.50;12.60;99.90;;;;;;5078296;28;11533;-46
2022/04/01 10:13:48;;;;;;;;;2.25;2.00;12.50;99.90;;;;;;5073361;28;11512;-51
2022/04/01 10:16:21;;;;;;;;;2.25;2.25;12.50;99.90;;;;;;5072493;28;12194;-49
2022/04/01 10:18:54;;;;;;;;;4.00;4.00;12.50;99.90;;;;;;5064714;28;11521;-50
2022/04/01 10:21:24;;;;;;;;;4.75;4.75;12.40;99.90;;;;;;5074719;28;11496;-48
2022/04/01 10:24:06;;;;;;;;;3.00;3.00;12.40;99.90;;;;;;5067343;28;11535;-51
2022/04/01 10:26:42;;;;;;;;;3.75;2.25;12.40;99.90;;;;;;5067101;28;11506;-50
2022/04/01 10:29:14;;;;;;;;;1.00;1.00;12.40;99.90;;;;;;5066176;28;11532;-49
2022/04/01 10:31:53;;;;;;;;;4.00;4.00;12.30;99.90;;;;;;5080770;28;11614;-48
2022/04/01 10:34:25;;;;;;;;;2.25;2.25;12.30;99.90;;;;;;5069338;28;11513;-49
2022/04/01 10:37:02;;;;;;;;;2.50;2.25;12.30;99.90;;;;;;5074256;28;11536;-50
2022/04/01 10:39:51;;;;;;;;;4.25;4.25;12.30;99.90;;;;;;5075898;28;11625;-49
2022/04/01 10:42:26;;;;;;;;;5.00;5.00;12.30;99.90;;;;;;5073325;28;11489;-47
2022/04/01 10:45:01;;;;;;;;;3.50;2.00;12.20;99.90;;;;;;5072825;28;11514;-49
2022/04/01 10:54:29;;;;;;;;;9.75;9.75;12.20;99.90;;;;;;5085269;28;11513;-49
2022/04/01 10:57:05;;;;;;;;;12.50;11.25;12.20;99.90;;;;;;5077979;28;11517;-50
2022/04/01 10:59:47;;;;;;;;;11.50;8.00;12.20;99.90;;;;;;5076361;28;12271;-51
2022/04/01 11:02:22;;;;;;;;;11.25;10.00;12.20;99.90;;;;;;5079736;28;11481;-48
2022/04/01 11:04:54;;;;;;;;;13.50;13.50;12.10;99.90;;;;;;5065824;28;11489;-51
2022/04/01 11:07:23;;;;;;;;;18.75;18.75;12.10;99.90;;;;;;5070559;28;11466;-46
2022/04/01 11:10:04;;;;;;;;;19.75;19.25;12.10;99.90;;;;;;5081752;28;11485;-48
2022/04/01 11:12:35;;;;;;;;;29.00;28.00;12.10;99.90;;;;;;5070547;28;11485;-50
2022/04/01 11:15:20;;;;;;;;;32.67;32.33;12.00;99.90;;;;;;5071340;28;11569;-48
2022/04/01 11:17:58;;;;;;;;;28.00;28.00;12.00;99.90;;;;;;5079151;28;8978;-46
2022/04/01 11:20:30;;;;;;;;;25.00;25.00;12.00;99.90;;;;;;5067154;28;11532;-51
2022/04/01 11:23:07;;;;;;;;;24.00;24.00;12.00;99.90;;;;;;5072475;28;11570;-47
2022/04/01 11:25:38;;;;;;;;;17.00;17.00;11.90;99.90;;;;;;5075721;28;11714;-49
2022/04/01 11:28:14;;;;;;;;;12.25;12.25;11.90;99.90;;;;;;5076212;28;8920;-50
2022/04/01 11:30:50;;;;;;;;;10.50;8.75;11.90;99.90;;;;;;5061277;28;11577;-50
2022/04/01 11:33:22;;;;;;;;;5.50;4.75;11.90;99.90;;;;;;5077191;28;12260;-48
2022/04/01 11:35:54;;;;;;;;;5.25;2.25;11.80;99.90;;;;;;5066341;28;11567;-52
2022/04/01 11:38:29;;;;;;;;;0.25;0.25;11.90;99.90;;;;;;5073518;28;11579;-48
2022/04/01 11:41:03;;;;;;;;;2.00;2.00;11.80;99.90;;;;;;5075571;28;11491;-51
2022/04/01 11:43:34;;;;;;;;;4.50;3.25;11.80;99.90;;;;;;5075517;28;11573;-49
2022/04/01 11:46:07;;;;;;;;;2.75;2.25;11.70;99.90;;;;;;5063641;28;11686;-50
2022/04/01 11:48:42;;;;;;;;;3.25;2.00;11.70;99.90;;;;;;5081165;28;11584;-46
2022/04/01 11:51:15;;;;;;;;;3.50;3.50;11.80;99.90;;;;;;5082841;27;12201;-51
2022/04/01 11:53:53;;;;;;;;;4.00;4.00;11.70;99.90;;;;;;5074614;28;11569;-49
2022/04/01 11:56:26;;;;;;;;;2.75;2.50;11.70;99.90;;;;;;5081420;28;11526;-51
2022/04/01 11:59:03;;;;;;;;;3.25;3.25;11.70;99.90;;;;;;5083998;28;11507;-50
2022/04/01 12:01:57;;;;;;;;;1.50;1.50;11.60;99.90;;;;;;5069181;28;11567;-51
2022/04/01 12:04:34;;;;;;;;;2.75;2.75;11.60;99.90;;;;;;5074028;28;11509;-50
2022/04/01 12:10:04;;;;;;;;;1.00;1.00;11.60;99.90;;;;;;5066657;28;11486;-49
2022/04/01 12:12:36;;;;;;;;;1.67;1.67;11.60;99.90;;;;;;5072813;28;11525;-48
2022/04/01 12:15:09;;;;;;;;;6.00;4.00;11.60;99.90;;;;;;5074850;28;12049;-51
2022/04/01 12:17:51;;;;;;;;;13.00;13.00;11.60;99.90;;;;;;5083754;28;8845;-51
2022/04/01 12:20:20;;;;;;;;;11.67;11.67;11.50;99.90;;;;;;5076291;28;9403;-49
2022/04/01 12:23:00;;;;;;;;;10.00;10.00;11.50;99.90;;;;;;5078093;28;9979;-51
2022/04/01 12:25:34;;;;;;;;;11.67;11.67;11.50;99.90;;;;;;5074970;28;8866;-51
2022/04/01 12:28:10;;;;;;;;;9.67;9.67;11.50;99.90;;;;;;5083532;28;8866;-50
2022/04/01 12:30:46;;;;;;;;;9.33;9.33;11.50;99.90;;;;;;5071812;28;8866;-49
2022/04/01 12:33:19;;;;;;;;;11.00;9.67;11.50;99.90;;;;;;5065499;28;11506;-48
2022/04/01 12:35:56;;;;;;;;;8.67;7.33;11.40;99.90;;;;;;5068006;28;8939;-52
2022/04/01 12:38:27;;;;;;;;;6.75;3.50;11.40;99.90;;;;;;5071859;28;11465;-49
2022/04/01 12:41:03;;;;;;;;;2.25;2.00;11.40;99.90;;;;;;5071456;28;11509;-51
2022/04/01 12:43:43;;;;;;;;;4.25;4.25;11.30;99.90;;;;;;5070302;28;11490;-48
2022/04/01 12:46:25;;;;;;;;;8.00;8.00;11.30;99.90;;;;;;5067204;28;11658;-47
2022/04/01 12:48:59;;;;;;;;;8.67;8.00;11.30;99.90;;;;;;5077305;28;12203;-52
2022/04/01 12:51:33;;;;;;;;;8.33;8.33;11.30;99.90;;;;;;5079247;28;11686;-52
2022/04/01 12:54:05;;;;;;;;;10.33;10.33;11.30;99.90;;;;;;5071146;28;12688;-49
2022/04/01 12:56:50;;;;;;;;;11.33;11.33;11.30;99.90;;;;;;5073188;28;11550;-49
2022/04/01 12:59:22;;;;;;;;;16.25;16.00;11.30;99.90;;;;;;5078317;28;11500;-47
2022/04/01 13:02:16;;;;;;;;;15.00;14.00;11.30;99.90;;;;;;5075942;28;11526;-50
2022/04/01 13:04:53;;;;;;;;;17.75;16.75;11.30;99.90;;;;;;5070919;28;11559;-51
2022/04/01 13:07:32;;;;;;;;;17.50;17.50;11.30;99.90;;;;;;5070323;28;11635;-50
2022/04/01 13:10:13;;;;;;;;;18.25;17.25;11.20;99.90;;;;;;5077732;27;11614;-51
2022/04/01 13:12:47;;;;;;;;;15.75;15.75;11.20;99.90;;;;;;5061724;28;11559;-51
2022/04/01 13:15:21;;;;;;;;;14.50;14.25;11.20;99.90;;;;;;5066614;28;11545;-48
2022/04/01 13:17:57;;;;;;;;;13.50;12.75;11.20;99.90;;;;;;5071334;28;11527;-51
2022/04/01 13:20:38;;;;;;;;;10.50;10.00;11.20;99.90;;;;;;5065902;28;11552;-52
2022/04/01 13:23:08;;;;;;;;;10.50;10.50;11.20;99.90;;;;;;5069715;28;11520;-51
2022/04/01 13:25:38;;;;;;;;;11.25;11.25;11.20;99.90;;;;;;5076732;28;11582;-51
2022/04/01 13:28:11;;;;;;;;;9.75;9.75;11.20;99.90;;;;;;5067695;28;11674;-50
2022/04/01 13:30:42;;;;;;;;;11.25;9.75;11.20;99.90;;;;;;5067044;28;11529;-52
2022/04/01 13:33:12;;;;;;;;;7.25;7.25;11.10;99.90;;;;;;5074927;28;11541;-52
2022/04/01 13:35:43;;;;;;;;;6.00;6.00;11.10;99.90;;;;;;5069920;28;12106;-48
2022/04/01 13:38:14;;;;;;;;;5.75;5.75;11.10;99.90;;;;;;5071196;28;11652;-49
2022/04/01 13:40:46;;;;;;;;;3.25;3.25;11.10;99.90;;;;;;5070760;28;11526;-50
2022/04/01 13:43:17;;;;;;;;;6.25;6.25;11.10;99.90;;;;;;5077016;28;11620;-50
2022/04/01 13:45:48;;;;;;;;;7.75;5.75;11.10;99.90;;;;;;5067336;28;11652;-49